New Orleans, LA

12:22 AM CDT on August 29, 2016 (GMT -0500)
Downtown CBD New Orleans | | Change Station

Elev 28 ft 29.94 °N, 90.07 °W | Updated 18 seconds ago

Partly Cloudy
Partly Cloudy
80.1 °F
Feels Like 84 °F
N
6.5
Wind Variable Wind from NW
Gusts 9.8 mph

Today
High -- | Low -- °F
--% Chance of Precip.
Yesterday
High -- | Low -- °F
Precip. -- in
Pressure 29.97 in
Visibility 10.0 miles
Clouds Few 9500 ft
Heat Index 84 °F
Dew Point 71 °F
Humidity 75%
Rainfall 0.00 in
Snow Depth Not available.
6:36 AM 7:25 PM
Waning Crescent, 11% visible
METAR KNEW 290453Z 05008KT 10SM FEW095 27/24 A2999 RMK AO2 SLP149 T02720239
Pressure 29.97 in
Visibility 10.0 miles
Clouds Few 9500 ft
Heat Index 84 °F
Dew Point 71 °F
Humidity 75%
Rainfall 0.00 in
Snow Depth Not available.
6:36 AM 7:25 PM
Waning Crescent, 11% visible
METAR KNEW 290453Z 05008KT 10SM FEW095 27/24 A2999 RMK AO2 SLP149 T02720239
The area of storminess, previously known as Invest 99-L that we were monitoring for days, finally developed into Tropical Depression Nine near the Florida Keys on Sunday evening.

There remains a large degree of uncertainty around how much this system will strengthen once it gets into the southeast Gulf of Mexico. For now, the clockwise flow around upper-level high pressure over the eastern United States will steer Tropical Depression Nine west-northwest toward the Gulf. That high will weaken by Tuesday, allowing this system to move more north, and then eventually northeast the next several days on a path toward the Florida Gulf Coast.

10-Day Weather Forecast

Almanac

Astronomy

Aug. 29, 2016 Rise Set
Actual Time
Civil Twilight
Nautical Twilight
Astronomical Twilight
Moon
Length of Visible Light
Length of Day
Tomorrow will be .
, % of the Moon is Illuminated

Today's Extremes

State Highs State Lows

Community

WunderPhotos

Upload Photos

1,935,800 photos uploaded!

WunderBlog® & News

Nearby

Air Quality

  Air Quality AQ Index Pollutant
Not available.

Snow Depth

Station Depth Elevation

Earthquake Activity

City Distance Mag. Time & Date
Minimum magnitude displayed is 2.5.

Coastal Water Temperatures

Place Temperature

Stations

Nearby Weather Stations

Station Location Temp. Windchill Dew Point Humidity Wind Precip. Elev Updated Type
                   

Watches & Warnings

There are currently no watches in effect.